sensor_id;sensor_type;location;lat;lon;timestamp;pressure;altitude;pressure_sealevel;temperature;humidity
28079;BME280;15388;42.238;24.684;2022-12-08T00:00:05;99479.69;;;5.58;100.00
28079;BME280;15388;42.238;24.684;2022-12-08T00:02:30;99476.53;;;5.66;100.00
28079;BME280;15388;42.238;24.684;2022-12-08T00:04:56;99470.06;;;5.70;100.00
28079;BME280;15388;42.238;24.684;2022-12-08T00:07:44;99468.81;;;5.76;100.00
28079;BME280;15388;42.238;24.684;2022-12-08T00:10:28;99475.56;;;5.80;100.00
28079;BME280;15388;42.238;24.684;2022-12-08T00:12:53;99478.19;;;5.80;100.00
28079;BME280;15388;42.238;24.684;2022-12-08T00:15:18;99480.44;;;5.73;100.00
28079;BME280;15388;42.238;24.684;2022-12-08T00:17:43;99481.56;;;5.56;100.00
28079;BME280;15388;42.238;24.684;2022-12-08T00:20:09;99480.53;;;5.46;100.00
28079;BME280;15388;42.238;24.684;2022-12-08T00:22:34;99485.59;;;5.49;100.00
28079;BME280;15388;42.238;24.684;2022-12-08T00:24:59;99497.84;;;5.50;100.00
28079;BME280;15388;42.238;24.684;2022-12-08T00:27:25;99500.50;;;5.50;100.00
28079;BME280;15388;42.238;24.684;2022-12-08T00:29:50;99497.66;;;5.53;100.00
28079;BME280;15388;42.238;24.684;2022-12-08T00:32:15;99496.16;;;5.49;100.00
28079;BME280;15388;42.238;24.684;2022-12-08T00:34:41;99491.09;;;5.46;100.00
28079;BME280;15388;42.238;24.684;2022-12-08T00:37:06;99493.63;;;5.47;100.00
28079;BME280;15388;42.238;24.684;2022-12-08T00:39:31;99495.63;;;5.44;100.00
28079;BME280;15388;42.238;24.684;2022-12-08T00:41:57;99505.03;;;5.48;100.00
28079;BME280;15388;42.238;24.684;2022-12-08T00:44:38;99492.78;;;5.47;100.00
28079;BME280;15388;42.238;24.684;2022-12-08T00:47:04;99492.66;;;5.22;100.00
28079;BME280;15388;42.238;24.684;2022-12-08T00:49:29;99499.66;;;4.96;100.00
28079;BME280;15388;42.238;24.684;2022-12-08T00:51:54;99501.78;;;5.04;100.00
28079;BME280;15388;42.238;24.684;2022-12-08T00:54:20;99503.91;;;5.12;100.00
28079;BME280;15388;42.238;24.684;2022-12-08T00:56:46;99502.84;;;5.01;100.00
28079;BME280;15388;42.238;24.684;2022-12-08T00:59:12;99506.97;;;4.78;100.00
28079;BME280;15388;42.238;24.684;2022-12-08T01:01:37;99496.09;;;4.97;100.00
28079;BME280;15388;42.238;24.684;2022-12-08T01:04:03;99498.75;;;5.10;100.00
28079;BME280;15388;42.238;24.684;2022-12-08T01:06:29;99494.84;;;5.16;100.00
28079;BME280;15388;42.238;24.684;2022-12-08T01:08:54;99493.75;;;5.05;100.00
28079;BME280;15388;42.238;24.684;2022-12-08T01:11:19;99493.94;;;4.89;100.00
28079;BME280;15388;42.238;24.684;2022-12-08T01:13:45;99498.44;;;4.74;100.00
28079;BME280;15388;42.238;24.684;2022-12-08T01:16:23;99498.06;;;4.66;100.00
28079;BME280;15388;42.238;24.684;2022-12-08T01:18:49;99497.88;;;4.69;100.00
28079;BME280;15388;42.238;24.684;2022-12-08T01:21:15;99495.41;;;4.80;100.00
28079;BME280;15388;42.238;24.684;2022-12-08T01:23:40;99488.22;;;4.82;100.00
28079;BME280;15388;42.238;24.684;2022-12-08T01:26:07;99490.97;;;4.81;100.00
28079;BME280;15388;42.238;24.684;2022-12-08T01:28:32;99486.44;;;4.83;100.00
28079;BME280;15388;42.238;24.684;2022-12-08T01:30:58;99491.00;;;4.94;100.00
28079;BME280;15388;42.238;24.684;2022-12-08T01:33:23;99482.78;;;4.99;100.00
28079;BME280;15388;42.238;24.684;2022-12-08T01:35:49;99485.13;;;5.03;100.00
28079;BME280;15388;42.238;24.684;2022-12-08T01:38:14;99498.50;;;5.00;100.00
28079;BME280;15388;42.238;24.684;2022-12-08T01:40:40;99488.72;;;5.02;100.00
28079;BME280;15388;42.238;24.684;2022-12-08T01:43:05;99497.38;;;5.04;100.00
28079;BME280;15388;42.238;24.684;2022-12-08T01:45:31;99492.94;;;5.05;100.00
28079;BME280;15388;42.238;24.684;2022-12-08T01:48:03;99498.84;;;5.08;100.00
28079;BME280;15388;42.238;24.684;2022-12-08T01:50:30;99497.06;;;5.09;100.00
28079;BME280;15388;42.238;24.684;2022-12-08T01:52:58;99490.13;;;5.21;100.00
28079;BME280;15388;42.238;24.684;2022-12-08T01:55:28;99495.50;;;5.32;100.00
28079;BME280;15388;42.238;24.684;2022-12-08T01:57:55;99487.72;;;5.44;100.00
28079;BME280;15388;42.238;24.684;2022-12-08T02:00:22;99490.88;;;5.49;100.00
28079;BME280;15388;42.238;24.684;2022-12-08T02:02:52;99485.94;;;5.57;100.00
28079;BME280;15388;42.238;24.684;2022-12-08T02:05:18;99480.75;;;5.69;100.00
28079;BME280;15388;42.238;24.684;2022-12-08T02:07:45;99480.94;;;5.66;100.00
28079;BME280;15388;42.238;24.684;2022-12-08T02:10:11;99491.50;;;5.66;100.00
28079;BME280;15388;42.238;24.684;2022-12-08T02:12:38;99490.56;;;5.67;100.00
28079;BME280;15388;42.238;24.684;2022-12-08T02:15:03;99476.06;;;5.72;100.00
28079;BME280;15388;42.238;24.684;2022-12-08T02:20:16;99471.56;;;5.61;100.00
28079;BME280;15388;42.238;24.684;2022-12-08T02:25:24;99483.59;;;5.66;100.00
28079;BME280;15388;42.238;24.684;2022-12-08T02:35:59;99505.84;;;5.22;100.00
28079;BME280;15388;42.238;24.684;2022-12-08T02:38:42;99507.63;;;5.22;100.00
28079;BME280;15388;42.238;24.684;2022-12-08T02:43:42;99504.50;;;5.30;100.00
28079;BME280;15388;42.238;24.684;2022-12-08T02:46:14;99501.84;;;5.30;100.00
28079;BME280;15388;42.238;24.684;2022-12-08T02:48:42;99501.84;;;5.17;100.00
28079;BME280;15388;42.238;24.684;2022-12-08T02:51:07;99513.88;;;5.21;100.00
28079;BME280;15388;42.238;24.684;2022-12-08T02:53:33;99508.31;;;4.98;100.00
28079;BME280;15388;42.238;24.684;2022-12-08T02:56:07;99504.75;;;4.99;100.00
28079;BME280;15388;42.238;24.684;2022-12-08T02:58:42;99505.75;;;4.83;100.00
28079;BME280;15388;42.238;24.684;2022-12-08T03:01:19;99511.25;;;4.66;100.00
28079;BME280;15388;42.238;24.684;2022-12-08T03:11:18;99512.16;;;4.79;100.00
28079;BME280;15388;42.238;24.684;2022-12-08T03:13:47;99504.13;;;4.68;100.00
28079;BME280;15388;42.238;24.684;2022-12-08T03:16:15;99502.97;;;4.72;100.00
28079;BME280;15388;42.238;24.684;2022-12-08T03:18:42;99511.38;;;4.64;100.00
28079;BME280;15388;42.238;24.684;2022-12-08T03:21:11;99510.91;;;4.57;100.00
28079;BME280;15388;42.238;24.684;2022-12-08T03:23:37;99514.44;;;4.43;100.00
28079;BME280;15388;42.238;24.684;2022-12-08T03:26:06;99500.69;;;4.38;100.00
28079;BME280;15388;42.238;24.684;2022-12-08T03:28:32;99500.03;;;4.49;100.00
28079;BME280;15388;42.238;24.684;2022-12-08T03:30:58;99500.38;;;4.57;100.00
28079;BME280;15388;42.238;24.684;2022-12-08T03:33:28;99494.72;;;4.64;100.00
28079;BME280;15388;42.238;24.684;2022-12-08T03:35:54;99492.41;;;4.72;100.00
28079;BME280;15388;42.238;24.684;2022-12-08T03:38:20;99502.19;;;4.84;100.00
28079;BME280;15388;42.238;24.684;2022-12-08T03:40:46;99504.88;;;4.70;100.00
28079;BME280;15388;42.238;24.684;2022-12-08T03:43:34;99492.22;;;4.75;100.00
28079;BME280;15388;42.238;24.684;2022-12-08T03:45:59;99494.78;;;4.90;100.00
28079;BME280;15388;42.238;24.684;2022-12-08T03:48:25;99502.81;;;4.88;100.00
28079;BME280;15388;42.238;24.684;2022-12-08T03:50:50;99506.63;;;4.97;100.00
28079;BME280;15388;42.238;24.684;2022-12-08T03:53:15;99505.19;;;5.06;100.00
28079;BME280;15388;42.238;24.684;2022-12-08T03:55:41;99496.88;;;5.12;100.00
28079;BME280;15388;42.238;24.684;2022-12-08T03:58:06;99502.44;;;5.07;100.00
28079;BME280;15388;42.238;24.684;2022-12-08T04:00:31;99497.28;;;5.19;100.00
28079;BME280;15388;42.238;24.684;2022-12-08T04:02:57;99493.59;;;5.21;100.00
28079;BME280;15388;42.238;24.684;2022-12-08T04:05:22;99495.31;;;5.22;100.00
28079;BME280;15388;42.238;24.684;2022-12-08T04:07:48;99487.69;;;5.18;100.00
28079;BME280;15388;42.238;24.684;2022-12-08T04:10:13;99489.56;;;5.16;100.00
28079;BME280;15388;42.238;24.684;2022-12-08T04:12:38;99499.13;;;5.31;100.00
28079;BME280;15388;42.238;24.684;2022-12-08T04:15:04;99501.88;;;5.43;100.00
28079;BME280;15388;42.238;24.684;2022-12-08T04:17:29;99496.16;;;5.49;100.00
28079;BME280;15388;42.238;24.684;2022-12-08T04:19:54;99501.66;;;5.59;100.00
28079;BME280;15388;42.238;24.684;2022-12-08T04:22:20;99512.13;;;5.60;100.00
28079;BME280;15388;42.238;24.684;2022-12-08T04:24:45;99506.72;;;5.62;100.00
28079;BME280;15388;42.238;24.684;2022-12-08T04:27:10;99503.03;;;5.52;100.00
28079;BME280;15388;42.238;24.684;2022-12-08T04:29:36;99497.75;;;5.52;100.00
28079;BME280;15388;42.238;24.684;2022-12-08T04:32:01;99502.94;;;5.53;100.00
28079;BME280;15388;42.238;24.684;2022-12-08T04:34:26;99503.97;;;5.64;100.00
28079;BME280;15388;42.238;24.684;2022-12-08T04:36:52;99508.31;;;5.65;100.00
28079;BME280;15388;42.238;24.684;2022-12-08T04:39:17;99497.84;;;5.76;100.00
28079;BME280;15388;42.238;24.684;2022-12-08T04:41:42;99508.72;;;5.84;100.00
28079;BME280;15388;42.238;24.684;2022-12-08T04:44:08;99510.41;;;5.59;100.00
28079;BME280;15388;42.238;24.684;2022-12-08T04:46:33;99504.50;;;5.69;100.00
28079;BME280;15388;42.238;24.684;2022-12-08T04:48:58;99502.91;;;5.79;100.00
28079;BME280;15388;42.238;24.684;2022-12-08T04:51:23;99498.69;;;5.90;100.00
28079;BME280;15388;42.238;24.684;2022-12-08T04:53:49;99501.22;;;5.91;100.00
28079;BME280;15388;42.238;24.684;2022-12-08T04:56:15;99507.13;;;5.95;100.00
28079;BME280;15388;42.238;24.684;2022-12-08T04:58:41;99506.50;;;5.78;100.00
28079;BME280;15388;42.238;24.684;2022-12-08T05:01:06;99504.19;;;5.60;100.00
28079;BME280;15388;42.238;24.684;2022-12-08T05:03:32;99509.25;;;5.64;100.00
28079;BME280;15388;42.238;24.684;2022-12-08T05:06:00;99512.72;;;5.77;100.00
28079;BME280;15388;42.238;24.684;2022-12-08T05:08:26;99517.50;;;5.85;100.00
28079;BME280;15388;42.238;24.684;2022-12-08T05:10:52;99523.59;;;5.85;100.00
28079;BME280;15388;42.238;24.684;2022-12-08T05:13:17;99527.41;;;5.94;100.00
28079;BME280;15388;42.238;24.684;2022-12-08T05:15:42;99516.84;;;5.81;100.00
28079;BME280;15388;42.238;24.684;2022-12-08T05:18:08;99526.47;;;5.82;100.00
28079;BME280;15388;42.238;24.684;2022-12-08T05:20:33;99526.25;;;5.85;100.00
28079;BME280;15388;42.238;24.684;2022-12-08T05:22:58;99534.91;;;5.88;100.00
28079;BME280;15388;42.238;24.684;2022-12-08T05:25:24;99535.03;;;5.86;100.00
28079;BME280;15388;42.238;24.684;2022-12-08T05:27:49;99523.75;;;5.84;100.00
28079;BME280;15388;42.238;24.684;2022-12-08T05:30:14;99525.53;;;5.83;100.00
28079;BME280;15388;42.238;24.684;2022-12-08T05:32:40;99535.88;;;5.86;100.00
28079;BME280;15388;42.238;24.684;2022-12-08T05:35:05;99540.84;;;5.91;100.00
28079;BME280;15388;42.238;24.684;2022-12-08T05:37:31;99536.06;;;5.96;100.00
28079;BME280;15388;42.238;24.684;2022-12-08T05:39:56;99536.59;;;6.02;100.00
28079;BME280;15388;42.238;24.684;2022-12-08T05:42:21;99547.28;;;6.00;100.00
28079;BME280;15388;42.238;24.684;2022-12-08T05:44:47;99548.22;;;5.99;100.00
28079;BME280;15388;42.238;24.684;2022-12-08T05:47:12;99555.56;;;6.08;100.00
28079;BME280;15388;42.238;24.684;2022-12-08T05:49:37;99554.81;;;6.06;100.00
28079;BME280;15388;42.238;24.684;2022-12-08T05:52:02;99560.09;;;6.06;100.00
28079;BME280;15388;42.238;24.684;2022-12-08T05:54:28;99564.53;;;6.06;100.00
28079;BME280;15388;42.238;24.684;2022-12-08T05:56:54;99564.19;;;6.10;100.00
28079;BME280;15388;42.238;24.684;2022-12-08T05:59:19;99570.66;;;6.06;100.00
28079;BME280;15388;42.238;24.684;2022-12-08T06:01:44;99567.81;;;6.09;100.00
28079;BME280;15388;42.238;24.684;2022-12-08T06:04:10;99564.66;;;6.04;100.00
28079;BME280;15388;42.238;24.684;2022-12-08T06:06:35;99565.47;;;6.05;100.00
28079;BME280;15388;42.238;24.684;2022-12-08T06:09:02;99560.63;;;6.11;100.00
28079;BME280;15388;42.238;24.684;2022-12-08T06:11:28;99571.41;;;6.08;100.00
28079;BME280;15388;42.238;24.684;2022-12-08T06:13:54;99566.22;;;6.07;100.00
28079;BME280;15388;42.238;24.684;2022-12-08T06:16:20;99562.91;;;6.03;100.00
28079;BME280;15388;42.238;24.684;2022-12-08T06:18:46;99575.38;;;6.01;100.00
28079;BME280;15388;42.238;24.684;2022-12-08T06:21:12;99575.81;;;5.95;100.00
28079;BME280;15388;42.238;24.684;2022-12-08T06:23:38;99573.41;;;6.05;100.00
28079;BME280;15388;42.238;24.684;2022-12-08T06:26:07;99573.28;;;6.06;100.00
28079;BME280;15388;42.238;24.684;2022-12-08T06:28:33;99566.31;;;6.05;100.00
28079;BME280;15388;42.238;24.684;2022-12-08T06:30:59;99574.03;;;6.08;100.00
28079;BME280;15388;42.238;24.684;2022-12-08T06:33:30;99577.41;;;6.10;100.00
28079;BME280;15388;42.238;24.684;2022-12-08T06:35:55;99583.88;;;6.06;100.00
28079;BME280;15388;42.238;24.684;2022-12-08T06:38:22;99581.75;;;6.11;100.00
28079;BME280;15388;42.238;24.684;2022-12-08T06:40:54;99582.69;;;6.10;100.00
28079;BME280;15388;42.238;24.684;2022-12-08T06:43:20;99582.28;;;6.17;100.00
28079;BME280;15388;42.238;24.684;2022-12-08T06:45:45;99583.44;;;6.26;100.00
28079;BME280;15388;42.238;24.684;2022-12-08T06:48:11;99584.03;;;6.03;100.00
28079;BME280;15388;42.238;24.684;2022-12-08T06:50:36;99586.84;;;6.15;100.00
28079;BME280;15388;42.238;24.684;2022-12-08T06:53:01;99589.16;;;6.06;100.00
28079;BME280;15388;42.238;24.684;2022-12-08T06:55:27;99597.63;;;6.11;100.00
28079;BME280;15388;42.238;24.684;2022-12-08T06:57:53;99591.88;;;6.18;100.00
28079;BME280;15388;42.238;24.684;2022-12-08T07:00:18;99604.38;;;6.16;100.00
28079;BME280;15388;42.238;24.684;2022-12-08T07:02:43;99598.34;;;6.14;100.00
28079;BME280;15388;42.238;24.684;2022-12-08T07:05:09;99599.09;;;6.16;100.00
28079;BME280;15388;42.238;24.684;2022-12-08T07:07:34;99605.19;;;6.16;100.00
28079;BME280;15388;42.238;24.684;2022-12-08T07:09:59;99603.63;;;6.14;100.00
28079;BME280;15388;42.238;24.684;2022-12-08T07:12:24;99603.22;;;6.07;100.00
28079;BME280;15388;42.238;24.684;2022-12-08T07:14:50;99597.81;;;6.08;100.00
28079;BME280;15388;42.238;24.684;2022-12-08T07:17:15;99604.78;;;6.09;100.00
28079;BME280;15388;42.238;24.684;2022-12-08T07:19:40;99603.69;;;5.99;100.00
28079;BME280;15388;42.238;24.684;2022-12-08T07:22:06;99615.13;;;5.99;100.00
28079;BME280;15388;42.238;24.684;2022-12-08T07:24:31;99610.28;;;6.06;100.00
28079;BME280;15388;42.238;24.684;2022-12-08T07:26:57;99627.09;;;6.05;100.00
28079;BME280;15388;42.238;24.684;2022-12-08T07:29:22;99626.25;;;6.05;100.00
28079;BME280;15388;42.238;24.684;2022-12-08T07:31:47;99632.28;;;6.07;100.00
28079;BME280;15388;42.238;24.684;2022-12-08T07:34:13;99630.59;;;6.06;100.00
28079;BME280;15388;42.238;24.684;2022-12-08T07:36:38;99636.50;;;6.09;100.00
28079;BME280;15388;42.238;24.684;2022-12-08T07:39:04;99631.53;;;6.05;100.00
28079;BME280;15388;42.238;24.684;2022-12-08T07:41:29;99640.09;;;6.08;100.00
28079;BME280;15388;42.238;24.684;2022-12-08T07:43:54;99642.00;;;6.06;100.00
28079;BME280;15388;42.238;24.684;2022-12-08T07:46:21;99648.53;;;6.14;100.00
28079;BME280;15388;42.238;24.684;2022-12-08T07:48:46;99646.44;;;6.19;100.00
28079;BME280;15388;42.238;24.684;2022-12-08T07:51:12;99648.53;;;6.27;100.00
28079;BME280;15388;42.238;24.684;2022-12-08T07:53:42;99647.28;;;6.32;100.00
28079;BME280;15388;42.238;24.684;2022-12-08T07:56:08;99643.91;;;6.43;100.00
28079;BME280;15388;42.238;24.684;2022-12-08T07:58:33;99644.63;;;6.58;100.00
28079;BME280;15388;42.238;24.684;2022-12-08T08:00:59;99648.09;;;6.59;100.00
28079;BME280;15388;42.238;24.684;2022-12-08T08:03:24;99653.38;;;6.59;100.00
28079;BME280;15388;42.238;24.684;2022-12-08T08:05:49;99646.22;;;6.48;100.00
28079;BME280;15388;42.238;24.684;2022-12-08T08:08:15;99632.16;;;6.34;100.00
28079;BME280;15388;42.238;24.684;2022-12-08T08:10:40;99653.41;;;6.46;100.00
28079;BME280;15388;42.238;24.684;2022-12-08T08:13:06;99649.94;;;6.45;100.00
28079;BME280;15388;42.238;24.684;2022-12-08T08:15:32;99652.03;;;6.53;100.00
28079;BME280;15388;42.238;24.684;2022-12-08T08:17:57;99659.09;;;6.66;100.00
28079;BME280;15388;42.238;24.684;2022-12-08T08:20:22;99659.50;;;6.72;100.00
28079;BME280;15388;42.238;24.684;2022-12-08T08:22:48;99656.22;;;6.69;100.00
28079;BME280;15388;42.238;24.684;2022-12-08T08:25:14;99658.00;;;6.81;100.00
28079;BME280;15388;42.238;24.684;2022-12-08T08:27:40;99657.69;;;6.86;100.00
28079;BME280;15388;42.238;24.684;2022-12-08T08:30:06;99656.28;;;6.93;100.00
28079;BME280;15388;42.238;24.684;2022-12-08T08:32:32;99655.03;;;6.86;100.00
28079;BME280;15388;42.238;24.684;2022-12-08T08:34:58;99646.03;;;6.88;100.00
28079;BME280;15388;42.238;24.684;2022-12-08T08:37:23;99652.78;;;6.93;100.00
28079;BME280;15388;42.238;24.684;2022-12-08T08:39:48;99648.16;;;6.83;100.00
28079;BME280;15388;42.238;24.684;2022-12-08T08:42:14;99645.09;;;6.77;100.00
28079;BME280;15388;42.238;24.684;2022-12-08T08:44:39;99641.28;;;6.81;100.00
28079;BME280;15388;42.238;24.684;2022-12-08T08:47:04;99639.13;;;6.99;100.00
28079;BME280;15388;42.238;24.684;2022-12-08T08:49:30;99635.13;;;7.18;100.00
28079;BME280;15388;42.238;24.684;2022-12-08T08:51:55;99633.88;;;7.35;100.00
28079;BME280;15388;42.238;24.684;2022-12-08T08:54:20;99628.28;;;7.51;100.00
28079;BME280;15388;42.238;24.684;2022-12-08T08:56:45;99626.41;;;7.64;100.00
28079;BME280;15388;42.238;24.684;2022-12-08T08:59:12;99620.81;;;7.81;100.00
28079;BME280;15388;42.238;24.684;2022-12-08T09:01:37;99622.16;;;7.98;100.00
28079;BME280;15388;42.238;24.684;2022-12-08T09:04:03;99618.59;;;8.10;100.00
28079;BME280;15388;42.238;24.684;2022-12-08T09:06:28;99612.56;;;8.20;100.00
28079;BME280;15388;42.238;24.684;2022-12-08T09:08:53;99608.09;;;8.32;100.00
28079;BME280;15388;42.238;24.684;2022-12-08T09:11:19;99616.78;;;8.45;100.00
28079;BME280;15388;42.238;24.684;2022-12-08T09:13:48;99621.59;;;8.51;100.00
28079;BME280;15388;42.238;24.684;2022-12-08T09:16:13;99621.13;;;8.58;100.00
28079;BME280;15388;42.238;24.684;2022-12-08T09:18:39;99619.81;;;8.63;100.00
28079;BME280;15388;42.238;24.684;2022-12-08T09:21:05;99617.66;;;8.69;100.00
28079;BME280;15388;42.238;24.684;2022-12-08T09:23:30;99618.84;;;8.76;100.00
28079;BME280;15388;42.238;24.684;2022-12-08T09:25:56;99609.66;;;8.80;100.00
28079;BME280;15388;42.238;24.684;2022-12-08T09:28:21;99609.16;;;8.86;100.00
28079;BME280;15388;42.238;24.684;2022-12-08T09:30:46;99603.34;;;8.92;100.00
28079;BME280;15388;42.238;24.684;2022-12-08T09:33:12;99596.69;;;8.98;100.00
28079;BME280;15388;42.238;24.684;2022-12-08T09:35:37;99596.22;;;9.04;100.00
28079;BME280;15388;42.238;24.684;2022-12-08T09:38:02;99601.16;;;9.09;100.00
28079;BME280;15388;42.238;24.684;2022-12-08T09:40:28;99591.22;;;9.11;100.00
28079;BME280;15388;42.238;24.684;2022-12-08T09:45:38;99591.66;;;9.28;100.00
28079;BME280;15388;42.238;24.684;2022-12-08T09:48:14;99581.03;;;9.28;100.00
28079;BME280;15388;42.238;24.684;2022-12-08T09:50:45;99582.97;;;9.26;100.00
28079;BME280;15388;42.238;24.684;2022-12-08T09:53:15;99581.03;;;9.28;100.00
28079;BME280;15388;42.238;24.684;2022-12-08T09:55:53;99586.34;;;9.28;100.00
28079;BME280;15388;42.238;24.684;2022-12-08T09:58:20;99584.41;;;9.30;100.00
28079;BME280;15388;42.238;24.684;2022-12-08T10:00:49;99578.25;;;9.29;100.00
28079;BME280;15388;42.238;24.684;2022-12-08T10:03:14;99575.34;;;9.33;100.00
28079;BME280;15388;42.238;24.684;2022-12-08T10:05:46;99582.84;;;9.27;100.00
28079;BME280;15388;42.238;24.684;2022-12-08T10:08:20;99569.91;;;9.34;100.00
28079;BME280;15388;42.238;24.684;2022-12-08T10:10:52;99568.22;;;9.33;100.00
28079;BME280;15388;42.238;24.684;2022-12-08T10:13:30;99570.47;;;9.38;100.00
28079;BME280;15388;42.238;24.684;2022-12-08T10:16:07;99569.97;;;9.44;100.00
28079;BME280;15388;42.238;24.684;2022-12-08T10:18:35;99578.56;;;9.36;100.00
28079;BME280;15388;42.238;24.684;2022-12-08T10:21:18;99572.28;;;9.16;100.00
28079;BME280;15388;42.238;24.684;2022-12-08T10:23:49;99565.66;;;9.10;100.00
28079;BME280;15388;42.238;24.684;2022-12-08T10:26:16;99561.81;;;9.03;100.00
28079;BME280;15388;42.238;24.684;2022-12-08T10:28:41;99553.41;;;8.98;100.00
28079;BME280;15388;42.238;24.684;2022-12-08T10:31:13;99558.72;;;8.98;100.00
28079;BME280;15388;42.238;24.684;2022-12-08T10:33:39;99551.25;;;8.91;100.00
28079;BME280;15388;42.238;24.684;2022-12-08T10:36:04;99555.34;;;8.96;100.00
28079;BME280;15388;42.238;24.684;2022-12-08T10:38:30;99552.19;;;9.02;100.00
28079;BME280;15388;42.238;24.684;2022-12-08T10:43:35;99534.28;;;9.15;100.00
28079;BME280;15388;42.238;24.684;2022-12-08T10:46:08;99537.13;;;9.24;100.00
28079;BME280;15388;42.238;24.684;2022-12-08T10:48:34;99545.28;;;9.32;100.00
28079;BME280;15388;42.238;24.684;2022-12-08T10:51:00;99549.09;;;9.39;100.00
28079;BME280;15388;42.238;24.684;2022-12-08T10:53:28;99552.03;;;9.36;100.00
28079;BME280;15388;42.238;24.684;2022-12-08T10:58:29;99543.03;;;8.95;100.00
28079;BME280;15388;42.238;24.684;2022-12-08T11:01:41;99534.66;;;8.66;100.00
28079;BME280;15388;42.238;24.684;2022-12-08T11:06:11;99526.63;;;8.57;100.00
28079;BME280;15388;42.238;24.684;2022-12-08T11:08:45;99531.28;;;8.64;100.00
28079;BME280;15388;42.238;24.684;2022-12-08T11:11:11;99522.00;;;8.70;100.00
28079;BME280;15388;42.238;24.684;2022-12-08T11:13:38;99523.78;;;8.81;100.00
28079;BME280;15388;42.238;24.684;2022-12-08T11:16:04;99515.38;;;8.97;100.00
28079;BME280;15388;42.238;24.684;2022-12-08T11:18:38;99517.16;;;9.08;100.00
28079;BME280;15388;42.238;24.684;2022-12-08T11:21:11;99508.53;;;9.16;100.00
28079;BME280;15388;42.238;24.684;2022-12-08T11:23:37;99508.91;;;9.23;100.00
28079;BME280;15388;42.238;24.684;2022-12-08T11:26:06;99506.94;;;9.25;100.00
28079;BME280;15388;42.238;24.684;2022-12-08T11:28:35;99510.41;;;9.04;100.00
28079;BME280;15388;42.238;24.684;2022-12-08T11:31:03;99513.06;;;9.04;100.00
28079;BME280;15388;42.238;24.684;2022-12-08T11:33:29;99517.16;;;9.08;100.00
28079;BME280;15388;42.238;24.684;2022-12-08T11:36:13;99511.84;;;9.08;100.00
28079;BME280;15388;42.238;24.684;2022-12-08T11:38:40;99498.84;;;9.05;100.00
28079;BME280;15388;42.238;24.684;2022-12-08T11:41:06;99497.91;;;8.95;100.00
28079;BME280;15388;42.238;24.684;2022-12-08T11:46:01;99496.81;;;8.97;100.00
28079;BME280;15388;42.238;24.684;2022-12-08T11:50:57;99497.84;;;9.06;100.00
28079;BME280;15388;42.238;24.684;2022-12-08T11:55:54;99500.69;;;8.93;100.00
28079;BME280;15388;42.238;24.684;2022-12-08T11:58:23;99494.09;;;8.87;100.00
28079;BME280;15388;42.238;24.684;2022-12-08T12:00:50;99503.28;;;8.83;100.00
28079;BME280;15388;42.238;24.684;2022-12-08T12:08:48;99494.38;;;8.73;100.00
28079;BME280;15388;42.238;24.684;2022-12-08T12:14:17;99482.78;;;8.74;100.00
28079;BME280;15388;42.238;24.684;2022-12-08T12:19:15;99507.19;;;8.56;100.00
28079;BME280;15388;42.238;24.684;2022-12-08T12:21:43;99499.00;;;8.48;100.00
28079;BME280;15388;42.238;24.684;2022-12-08T12:24:31;99501.16;;;8.43;100.00
28079;BME280;15388;42.238;24.684;2022-12-08T12:27:05;99500.09;;;8.45;100.00
28079;BME280;15388;42.238;24.684;2022-12-08T12:29:35;99496.63;;;8.33;100.00
28079;BME280;15388;42.238;24.684;2022-12-08T12:32:02;99496.63;;;8.33;100.00
28079;BME280;15388;42.238;24.684;2022-12-08T12:34:29;99498.28;;;8.34;100.00
28079;BME280;15388;42.238;24.684;2022-12-08T12:39:22;99499.72;;;8.38;100.00
28079;BME280;15388;42.238;24.684;2022-12-08T12:41:50;99505.16;;;8.37;100.00
28079;BME280;15388;42.238;24.684;2022-12-08T12:51:54;99484.31;;;8.32;100.00
28079;BME280;15388;42.238;24.684;2022-12-08T12:54:20;99490.47;;;8.33;100.00
28079;BME280;15388;42.238;24.684;2022-12-08T12:56:50;99490.09;;;8.37;100.00
28079;BME280;15388;42.238;24.684;2022-12-08T13:01:53;99485.16;;;8.33;100.00
28079;BME280;15388;42.238;24.684;2022-12-08T13:04:19;99487.09;;;8.31;100.00
28079;BME280;15388;42.238;24.684;2022-12-08T13:06:52;99489.50;;;8.22;100.00
28079;BME280;15388;42.238;24.684;2022-12-08T13:09:18;99489.75;;;8.19;100.00
28079;BME280;15388;42.238;24.684;2022-12-08T13:11:48;99490.34;;;8.23;100.00
28079;BME280;15388;42.238;24.684;2022-12-08T13:14:28;99487.47;;;8.26;100.00
28079;BME280;15388;42.238;24.684;2022-12-08T13:16:54;99488.78;;;8.32;100.00
28079;BME280;15388;42.238;24.684;2022-12-08T13:19:20;99475.63;;;8.30;100.00
28079;BME280;15388;42.238;24.684;2022-12-08T13:21:46;99480.94;;;8.30;100.00
28079;BME280;15388;42.238;24.684;2022-12-08T13:24:13;99482.88;;;8.28;100.00
28079;BME280;15388;42.238;24.684;2022-12-08T13:26:44;99477.44;;;8.29;100.00
28079;BME280;15388;42.238;24.684;2022-12-08T13:29:14;99484.06;;;8.24;100.00
28079;BME280;15388;42.238;24.684;2022-12-08T13:34:06;99488.44;;;8.13;100.00
28079;BME280;15388;42.238;24.684;2022-12-08T13:36:55;99488.44;;;8.25;100.00
28079;BME280;15388;42.238;24.684;2022-12-08T13:39:34;99492.88;;;8.24;100.00
28079;BME280;15388;42.238;24.684;2022-12-08T13:42:01;99495.19;;;8.29;100.00
28079;BME280;15388;42.238;24.684;2022-12-08T13:44:36;99490.34;;;8.23;100.00
28079;BME280;15388;42.238;24.684;2022-12-08T13:47:04;99485.06;;;8.23;100.00
28079;BME280;15388;42.238;24.684;2022-12-08T13:49:35;99486.72;;;8.24;100.00
28079;BME280;15388;42.238;24.684;2022-12-08T13:52:01;99486.72;;;8.24;100.00
28079;BME280;15388;42.238;24.684;2022-12-08T13:54:34;99493.75;;;8.25;100.00
28079;BME280;15388;42.238;24.684;2022-12-08T13:57:01;99483.97;;;8.25;100.00